Time;durP1;ratioP1;P1;durP2;ratioP2;P2;SDS_P1;SDS_P2;PMS_P1;PMS_P2;Temp;Humidity;BMP_temperature;BMP_pressure;BME280_temperature;BME280_humidity;BME280_pressure;Samples;Min_cycle;Max_cycle;Signal;HPM_P1;HPM_P2
2022/05/30 00:01:10;;;;;;;;;3.00;1.00;;;;;-143.57;100.00;65101.44;5076616;28;46009;-55
2022/05/30 00:03:36;;;;;;;;;2.67;2.67;;;;;-143.57;100.00;65101.44;5076723;28;45272;-58
2022/05/30 00:06:01;;;;;;;;;2.00;2.00;;;;;-143.57;100.00;65101.44;5076506;28;45371;-56
2022/05/30 00:08:27;;;;;;;;;1.00;1.00;;;;;-143.57;100.00;65101.44;5076852;28;45349;-57
2022/05/30 00:10:53;;;;;;;;;1.00;1.00;;;;;-143.57;100.00;65101.44;5076484;28;45912;-54
2022/05/30 00:13:18;;;;;;;;;2.00;1.33;;;;;-143.57;100.00;65101.44;5076447;28;45494;-54
2022/05/30 00:15:44;;;;;;;;;2.33;1.00;;;;;-143.57;100.00;65101.44;5076618;28;45322;-56
2022/05/30 00:18:12;;;;;;;;;2.33;2.33;;;;;-143.57;100.00;65101.44;5076641;28;45636;-53
2022/05/30 00:20:42;;;;;;;;;3.00;1.00;;;;;-143.57;100.00;65101.44;5076626;28;45367;-55
2022/05/30 00:23:08;;;;;;;;;3.00;1.00;;;;;-143.57;100.00;65101.44;5076674;28;45208;-58
2022/05/30 00:25:33;;;;;;;;;2.67;2.00;;;;;-143.57;100.00;65101.44;5076417;28;45396;-53
2022/05/30 00:27:58;;;;;;;;;2.33;2.33;;;;;-143.57;100.00;65101.44;5076897;28;45423;-58
2022/05/30 00:30:24;;;;;;;;;3.33;2.00;;;;;-143.57;100.00;65101.44;5079057;28;47113;-56
2022/05/30 00:32:49;;;;;;;;;2.33;2.33;;;;;-143.57;100.00;65101.44;5080042;28;45465;-59
2022/05/30 00:35:15;;;;;;;;;2.00;2.00;;;;;-143.57;100.00;65101.44;5080447;28;45337;-57
2022/05/30 00:37:40;;;;;;;;;2.00;2.00;;;;;-143.57;100.00;65101.44;5080425;28;45269;-54
2022/05/30 00:40:07;;;;;;;;;4.00;2.00;;;;;-143.57;100.00;65101.44;5079797;28;47051;-55
2022/05/30 00:42:33;;;;;;;;;2.67;2.67;;;;;-143.57;100.00;65101.44;5080023;28;45377;-55
2022/05/30 00:44:59;;;;;;;;;2.67;2.67;;;;;-143.57;100.00;65101.44;5079810;28;45498;-57
2022/05/30 00:47:25;;;;;;;;;2.33;2.33;;;;;-143.57;100.00;65101.44;5079792;28;45495;-56
2022/05/30 00:49:51;;;;;;;;;3.00;3.00;;;;;-143.57;100.00;65101.44;5079784;28;46792;-57
2022/05/30 00:52:32;;;;;;;;;2.67;2.67;;;;;-143.57;100.00;65101.44;5079632;28;45222;-56
2022/05/30 00:55:07;;;;;;;;;5.33;3.33;;;;;-143.57;100.00;65101.44;5079967;28;45599;-57
2022/05/30 00:57:35;;;;;;;;;2.00;2.00;;;;;-143.57;100.00;65101.44;5080022;28;45400;-55
2022/05/30 01:00:13;;;;;;;;;4.00;2.00;;;;;-143.57;100.00;65101.44;5079551;28;47101;-57
2022/05/30 01:02:41;;;;;;;;;8.33;4.00;;;;;-143.57;100.00;65101.44;5079338;28;45335;-57
2022/05/30 01:07:54;;;;;;;;;2.33;2.33;;;;;-143.57;100.00;65101.44;5079736;28;45404;-54
2022/05/30 01:10:21;;;;;;;;;6.33;6.00;;;;;-143.57;100.00;65101.44;5079652;28;46131;-57
2022/05/30 01:12:52;;;;;;;;;3.67;3.00;;;;;-143.57;100.00;65101.44;5079528;28;45316;-54
2022/05/30 01:15:20;;;;;;;;;6.33;3.33;;;;;-143.57;100.00;65101.44;5079536;28;45423;-52
2022/05/30 01:17:59;;;;;;;;;4.00;4.00;;;;;-143.57;100.00;65101.44;5079599;28;45352;-56
2022/05/30 01:20:32;;;;;;;;;4.00;4.00;;;;;-143.57;100.00;65101.44;5079340;28;46138;-59
2022/05/30 01:23:00;;;;;;;;;4.00;3.00;;;;;-143.57;100.00;65101.44;5079372;28;45263;-58
2022/05/30 01:25:48;;;;;;;;;6.33;4.00;;;;;-143.57;100.00;65101.44;5079863;28;45482;-57
2022/05/30 01:28:22;;;;;;;;;6.00;3.33;;;;;-143.57;100.00;65101.44;5079530;28;45686;-56
2022/05/30 01:30:49;;;;;;;;;3.67;3.67;;;;;-143.57;100.00;65101.44;5079664;28;46379;-55
2022/05/30 01:33:14;;;;;;;;;4.00;4.00;;;;;-143.57;100.00;65101.44;5079096;28;45250;-57
2022/05/30 01:35:39;;;;;;;;;3.00;3.00;;;;;-143.57;100.00;65101.44;5079596;28;45235;-57
2022/05/30 01:38:05;;;;;;;;;4.33;3.00;;;;;-143.57;100.00;65101.44;5079728;28;45293;-59
2022/05/30 01:40:31;;;;;;;;;6.00;4.67;;;;;-143.57;100.00;65101.44;5079224;27;46229;-57
2022/05/30 01:42:56;;;;;;;;;3.00;1.67;;;;;-143.57;100.00;65101.44;5079323;28;45417;-58
2022/05/30 01:45:24;;;;;;;;;3.00;3.00;;;;;-143.57;100.00;65101.44;5078747;28;45211;-58
2022/05/30 01:47:50;;;;;;;;;6.00;4.00;;;;;-143.57;100.00;65101.44;5079291;28;45389;-57
2022/05/30 01:50:16;;;;;;;;;6.67;3.00;;;;;-143.57;100.00;65101.44;5078909;28;46305;-57
2022/05/30 01:52:42;;;;;;;;;2.67;2.67;;;;;-143.57;100.00;65101.44;5078902;28;45459;-55
2022/05/30 01:55:08;;;;;;;;;4.00;2.00;;;;;-143.57;100.00;65101.44;5078958;28;45462;-56
2022/05/30 01:57:33;;;;;;;;;5.33;3.00;;;;;-143.57;100.00;65101.44;5079224;28;45369;-53
2022/05/30 01:59:58;;;;;;;;;3.00;3.00;;;;;-143.57;100.00;65101.44;5078439;28;46088;-57
2022/05/30 02:02:24;;;;;;;;;4.33;4.33;;;;;-143.57;100.00;65101.44;5078591;28;45535;-57
2022/05/30 02:04:50;;;;;;;;;6.00;3.33;;;;;-143.57;100.00;65101.44;5078807;28;45177;-57
2022/05/30 02:07:16;;;;;;;;;3.00;3.00;;;;;-143.57;100.00;65101.44;5078849;28;45203;-58
2022/05/30 02:09:41;;;;;;;;;3.67;3.00;;;;;-143.57;100.00;65101.44;5078451;28;45974;-56
2022/05/30 02:12:07;;;;;;;;;6.00;3.00;;;;;-143.57;100.00;65101.44;5078567;28;45433;-54
2022/05/30 02:14:33;;;;;;;;;4.33;3.33;;;;;-143.57;100.00;65101.44;5078880;28;45309;-58
2022/05/30 02:17:00;;;;;;;;;3.00;3.00;;;;;-143.57;100.00;65101.44;5078608;28;45406;-52
2022/05/30 02:19:32;;;;;;;;;4.00;3.00;;;;;-143.57;100.00;65101.44;5078532;28;45350;-55
2022/05/30 02:21:57;;;;;;;;;4.33;2.00;;;;;-143.57;100.00;65101.44;5078140;28;45502;-58
2022/05/30 02:24:22;;;;;;;;;3.33;3.33;;;;;-143.57;100.00;65101.44;5078643;28;45403;-55
2022/05/30 02:26:48;;;;;;;;;3.00;3.00;;;;;-143.57;100.00;65101.44;5078712;28;45360;-55
2022/05/30 02:29:13;;;;;;;;;5.67;3.00;;;;;-143.57;100.00;65101.44;5078261;28;46332;-56
2022/05/30 02:31:38;;;;;;;;;2.00;2.00;;;;;-143.57;100.00;65101.44;5078413;28;45475;-57
2022/05/30 02:36:50;;;;;;;;;3.00;3.00;;;;;-143.57;100.00;65101.44;5078602;28;45341;-57
2022/05/30 02:39:21;;;;;;;;;4.33;3.00;;;;;-143.57;100.00;65101.44;5078000;28;45381;-58
2022/05/30 02:41:48;;;;;;;;;7.00;4.00;;;;;-143.57;100.00;65101.44;5077991;28;45326;-54
2022/05/30 02:44:18;;;;;;;;;7.67;3.67;;;;;-143.57;100.00;65101.44;5078010;28;45294;-54
2022/05/30 02:46:45;;;;;;;;;8.67;7.33;;;;;-143.57;100.00;65101.44;5078189;28;45367;-54
2022/05/30 02:49:11;;;;;;;;;5.67;5.67;;;;;-143.57;100.00;65101.44;5077896;28;46315;-57
2022/05/30 02:51:36;;;;;;;;;6.33;3.33;;;;;-143.57;100.00;65101.44;5077662;28;45251;-55
2022/05/30 02:54:02;;;;;;;;;7.00;6.00;;;;;-143.57;100.00;65101.44;5078191;28;45366;-57
2022/05/30 02:56:27;;;;;;;;;8.00;6.00;;;;;-143.57;100.00;65101.44;5078270;28;45473;-58
2022/05/30 02:58:53;;;;;;;;;6.00;3.00;;;;;-143.57;100.00;65101.44;5077994;28;45436;-57
2022/05/30 03:01:18;;;;;;;;;14.33;6.00;;;;;-143.57;100.00;65101.44;5076556;28;45346;-55
2022/05/30 03:03:44;;;;;;;;;6.00;5.33;;;;;-143.57;100.00;65101.44;5077516;28;45416;-55
2022/05/30 03:06:10;;;;;;;;;8.00;4.00;;;;;-143.57;100.00;65101.44;5077897;28;45310;-58
2022/05/30 03:08:36;;;;;;;;;5.33;5.33;;;;;-143.57;100.00;65101.44;5077509;28;46288;-57
2022/05/30 03:11:02;;;;;;;;;7.33;6.00;;;;;-143.57;100.00;65101.44;5077818;28;45423;-56
2022/05/30 03:13:27;;;;;;;;;6.00;6.00;;;;;-143.57;100.00;65101.44;5077900;28;45302;-53
2022/05/30 03:15:53;;;;;;;;;3.00;3.00;;;;;-143.57;100.00;65101.44;5077989;28;45480;-57
2022/05/30 03:18:18;;;;;;;;;6.67;6.33;;;;;-143.57;100.00;65101.44;5077387;28;45353;-56
2022/05/30 03:20:44;;;;;;;;;6.67;6.00;;;;;-143.57;100.00;65101.44;5077352;28;45278;-53
2022/05/30 03:23:09;;;;;;;;;9.33;7.00;;;;;-143.57;100.00;65101.44;5077665;28;45381;-57
2022/05/30 03:25:35;;;;;;;;;6.00;6.00;;;;;-143.57;100.00;65101.44;5077832;28;45190;-57
2022/05/30 03:28:01;;;;;;;;;5.00;3.00;;;;;-143.57;100.00;65101.44;5077548;28;45911;-58
2022/05/30 03:30:27;;;;;;;;;9.33;6.00;;;;;-143.57;100.00;65101.44;5077422;28;45470;-55
2022/05/30 03:32:53;;;;;;;;;7.00;4.67;;;;;-143.57;100.00;65101.44;5077605;28;45333;-56
2022/05/30 03:35:19;;;;;;;;;5.00;5.00;;;;;-143.57;100.00;65101.44;5077594;28;45509;-56
2022/05/30 03:37:45;;;;;;;;;6.33;6.33;;;;;-143.57;100.00;65101.44;5076810;28;45340;-57
2022/05/30 03:40:14;;;;;;;;;7.00;6.00;;;;;-143.57;100.00;65101.44;5077478;28;45298;-58
2022/05/30 03:42:39;;;;;;;;;5.00;3.00;;;;;-143.57;100.00;65101.44;5077335;28;45421;-56
2022/05/30 03:45:07;;;;;;;;;6.00;5.33;;;;;-143.57;100.00;65101.44;5077367;28;45372;-54
2022/05/30 03:47:37;;;;;;;;;7.00;6.00;;;;;-143.57;100.00;65101.44;5077012;28;47071;-55
2022/05/30 03:50:03;;;;;;;;;6.33;6.00;;;;;-143.57;100.00;65101.44;5077027;28;45425;-57
2022/05/30 03:52:29;;;;;;;;;2.67;2.00;;;;;-143.57;100.00;65101.44;5076940;28;45404;-57
2022/05/30 03:54:54;;;;;;;;;6.00;5.00;;;;;-143.57;100.00;65101.44;5077197;28;45520;-55
2022/05/30 03:57:20;;;;;;;;;5.33;3.67;;;;;-143.57;100.00;65101.44;5076978;28;45387;-57
2022/05/30 03:59:46;;;;;;;;;5.67;3.00;;;;;-143.57;100.00;65101.44;5077301;28;45365;-58
2022/05/30 04:02:11;;;;;;;;;2.33;2.33;;;;;-143.57;100.00;65101.44;5077208;28;45232;-56
2022/05/30 04:04:37;;;;;;;;;6.00;5.00;;;;;-143.57;100.00;65101.44;5078475;28;45367;-56
2022/05/30 04:07:03;;;;;;;;;5.00;5.00;;;;;-143.57;100.00;65101.44;5080342;28;46031;-57
2022/05/30 04:09:28;;;;;;;;;6.00;5.00;;;;;-143.57;100.00;65101.44;5080550;28;45184;-58
2022/05/30 04:11:54;;;;;;;;;7.00;3.33;;;;;-143.57;100.00;65101.44;5080809;28;45539;-58
2022/05/30 04:14:19;;;;;;;;;3.00;3.00;;;;;-143.57;100.00;65101.44;5081006;28;45270;-54
2022/05/30 04:16:44;;;;;;;;;5.33;3.00;;;;;-143.57;100.00;65101.44;5080431;28;45888;-55
2022/05/30 04:19:10;;;;;;;;;7.00;7.00;;;;;-143.57;100.00;65101.44;5080237;28;45314;-57
2022/05/30 04:21:36;;;;;;;;;4.00;4.00;;;;;-143.57;100.00;65101.44;5080569;28;45362;-58
2022/05/30 04:24:01;;;;;;;;;10.00;5.67;;;;;-143.57;100.00;65101.44;5080465;28;45275;-57
2022/05/30 04:26:27;;;;;;;;;7.67;4.67;;;;;-143.57;100.00;65101.44;5079926;28;47306;-57
2022/05/30 04:28:52;;;;;;;;;2.33;2.33;;;;;-143.57;100.00;65101.44;5080222;28;45420;-57
2022/05/30 04:31:17;;;;;;;;;8.00;6.67;;;;;-143.57;100.00;65101.44;5080564;28;45313;-56
2022/05/30 04:33:43;;;;;;;;;7.67;7.67;;;;;-143.57;100.00;65101.44;5080297;28;45405;-58
2022/05/30 04:36:11;;;;;;;;;11.00;4.33;;;;;-143.57;100.00;65101.44;5080321;28;45312;-57
2022/05/30 04:38:36;;;;;;;;;10.33;8.00;;;;;-143.57;100.00;65101.44;5080015;28;45423;-57
2022/05/30 04:41:02;;;;;;;;;6.00;5.00;;;;;-143.57;100.00;65101.44;5080091;28;45156;-57
2022/05/30 04:43:28;;;;;;;;;4.00;4.00;;;;;-143.57;100.00;65101.44;5080424;28;45218;-59
2022/05/30 04:46:16;;;;;;;;;7.00;6.67;;;;;-143.57;100.00;65101.44;5079732;28;46622;-58
2022/05/30 04:48:43;;;;;;;;;7.67;7.00;;;;;-143.57;100.00;65101.44;5080028;28;45365;-56
2022/05/30 04:51:08;;;;;;;;;6.67;6.00;;;;;-143.57;100.00;65101.44;5080271;28;45331;-57
2022/05/30 04:53:34;;;;;;;;;6.67;6.67;;;;;-143.57;100.00;65101.44;5081398;28;45591;-54
2022/05/30 04:56:00;;;;;;;;;6.67;6.67;;;;;-143.57;100.00;65101.44;5080482;28;45521;-57
2022/05/30 04:58:29;;;;;;;;;6.33;4.33;;;;;-143.57;100.00;65101.44;5080482;28;45244;-57
2022/05/30 05:00:59;;;;;;;;;8.00;6.33;;;;;-143.57;100.00;65101.44;5079924;28;45325;-57
2022/05/30 05:03:27;;;;;;;;;5.00;5.00;;;;;-143.57;100.00;65101.44;5080140;28;45431;-57
2022/05/30 05:06:10;;;;;;;;;6.00;6.00;;;;;-143.57;100.00;65101.44;5079423;28;46339;-56
2022/05/30 05:08:50;;;;;;;;;8.00;6.33;;;;;-143.57;100.00;65101.44;5078074;28;45372;-57
2022/05/30 05:11:26;;;;;;;;;7.00;5.67;;;;;-143.57;100.00;65101.44;5079567;28;45252;-56
2022/05/30 05:13:52;;;;;;;;;8.67;7.33;;;;;-143.57;100.00;65101.44;5079642;28;45291;-55
2022/05/30 05:16:21;;;;;;;;;8.00;5.67;;;;;-143.57;100.00;65101.44;5079077;28;45314;-56
2022/05/30 05:18:47;;;;;;;;;6.00;6.00;;;;;-143.57;100.00;65101.44;5079118;28;45336;-57
2022/05/30 05:21:43;;;;;;;;;12.67;7.00;;;;;-143.57;100.00;65101.44;5079364;28;45233;-54
2022/05/30 05:24:15;;;;;;;;;7.33;6.00;;;;;-143.57;100.00;65101.44;5079372;28;45551;-57
2022/05/30 05:26:47;;;;;;;;;6.00;4.33;;;;;-143.57;100.00;65101.44;5079010;28;47257;-56
2022/05/30 05:29:12;;;;;;;;;4.00;4.00;;;;;-143.57;100.00;65101.44;5079133;28;45390;-56
2022/05/30 05:31:37;;;;;;;;;5.67;5.67;;;;;-143.57;100.00;65101.44;5079322;28;45285;-57
2022/05/30 05:34:06;;;;;;;;;8.33;7.67;;;;;-143.57;100.00;65101.44;5079200;28;45372;-52
2022/05/30 05:36:35;;;;;;;;;8.33;5.33;;;;;-143.57;100.00;65101.44;5079039;28;46393;-56
2022/05/30 05:39:01;;;;;;;;;7.33;6.00;;;;;-143.57;100.00;65101.44;5079022;28;45339;-57
2022/05/30 05:41:27;;;;;;;;;7.00;6.67;;;;;-143.57;100.00;65101.44;5079296;28;45368;-55
2022/05/30 05:43:53;;;;;;;;;7.00;7.00;;;;;-143.57;100.00;65101.44;5079378;28;45298;-55
2022/05/30 05:46:20;;;;;;;;;14.00;8.00;;;;;-143.57;100.00;65101.44;5078633;28;46236;-53
2022/05/30 05:48:46;;;;;;;;;9.33;5.67;;;;;-143.57;100.00;65101.44;5078885;28;45241;-53
2022/05/30 05:51:13;;;;;;;;;7.00;7.00;;;;;-143.57;100.00;65101.44;5078948;28;45458;-52
2022/05/30 05:53:40;;;;;;;;;7.67;6.00;;;;;-143.57;100.00;65101.44;5079322;28;45422;-52
2022/05/30 05:56:11;;;;;;;;;6.00;3.00;;;;;-143.57;100.00;65101.44;5078743;28;45407;-54
2022/05/30 05:58:36;;;;;;;;;5.67;5.00;;;;;-143.57;100.00;65101.44;5078864;28;45379;-55
2022/05/30 06:01:19;;;;;;;;;10.00;4.67;;;;;-143.57;100.00;65101.44;5078921;28;45436;-53
2022/05/30 06:03:45;;;;;;;;;10.33;7.00;;;;;-143.57;100.00;65101.44;5079134;28;45214;-51
2022/05/30 06:06:10;;;;;;;;;8.33;7.00;;;;;-143.57;100.00;65101.44;5074950;28;46333;-52
2022/05/30 06:08:36;;;;;;;;;7.00;5.67;;;;;-143.57;100.00;65101.44;5058280;28;45404;-52
2022/05/30 06:11:05;;;;;;;;;10.33;4.67;;;;;-143.57;100.00;65101.44;5058586;28;45429;-53
2022/05/30 06:13:49;;;;;;;;;8.00;6.33;;;;;-143.57;100.00;65101.44;5058530;28;45360;-53
2022/05/30 06:16:20;;;;;;;;;8.00;6.00;;;;;-143.57;100.00;65101.44;5057066;28;46086;-52
2022/05/30 06:18:47;;;;;;;;;10.67;7.00;;;;;-143.57;100.00;65101.44;5058139;28;45227;-54
2022/05/30 06:21:12;;;;;;;;;7.33;6.00;;;;;-143.57;100.00;65101.44;5058072;28;45175;-54
2022/05/30 06:23:38;;;;;;;;;8.33;7.00;;;;;-143.57;100.00;65101.44;5058464;28;45306;-55
2022/05/30 06:26:08;;;;;;;;;4.00;4.00;;;;;-143.57;100.00;65101.44;5057826;28;46090;-53
2022/05/30 06:28:36;;;;;;;;;8.33;6.00;;;;;-143.57;100.00;65101.44;5057305;28;45353;-53
2022/05/30 06:31:07;;;;;;;;;6.33;4.00;;;;;-143.57;100.00;65101.44;5057995;28;45504;-52
2022/05/30 06:33:32;;;;;;;;;10.67;6.00;;;;;-143.57;100.00;65101.44;5058356;28;45439;-51
2022/05/30 06:35:57;;;;;;;;;3.00;3.00;;;;;-143.57;100.00;65101.44;5057886;28;46003;-54
2022/05/30 06:38:23;;;;;;;;;7.33;5.33;;;;;-143.57;100.00;65101.44;5058178;28;45454;-52
2022/05/30 06:40:48;;;;;;;;;6.67;6.67;;;;;-143.57;100.00;65101.44;5058227;28;45270;-51
2022/05/30 06:43:14;;;;;;;;;10.00;4.00;;;;;-143.57;100.00;65101.44;5058228;28;45394;-52
2022/05/30 06:45:39;;;;;;;;;8.00;5.00;;;;;-143.57;100.00;65101.44;5057742;28;46125;-52
2022/05/30 06:48:05;;;;;;;;;9.33;7.00;;;;;-143.57;100.00;65101.44;5057924;28;45270;-53
2022/05/30 06:50:30;;;;;;;;;6.00;4.33;;;;;-143.57;100.00;65101.44;5057947;28;45355;-53
2022/05/30 06:52:55;;;;;;;;;7.33;4.33;;;;;-143.57;100.00;65101.44;5058046;28;45313;-54
2022/05/30 06:55:21;;;;;;;;;5.33;4.33;;;;;-143.57;100.00;65101.44;5057719;28;46097;-53
2022/05/30 07:00:31;;;;;;;;;7.50;7.00;;;;;-143.57;100.00;65101.44;5057828;28;45322;-51
2022/05/30 07:02:57;;;;;;;;;5.00;5.00;;;;;-143.57;100.00;65101.44;5057759;28;45533;-52
2022/05/30 07:05:23;;;;;;;;;6.50;5.25;;;;;-143.57;100.00;65101.44;5056970;28;45303;-52
2022/05/30 07:07:51;;;;;;;;;5.00;5.00;;;;;-143.57;100.00;65101.44;5074189;28;45282;-54
2022/05/30 07:10:17;;;;;;;;;6.40;6.40;;;;;-143.57;100.00;65101.44;5077817;28;45389;-52
2022/05/30 07:12:42;;;;;;;;;8.75;7.50;;;;;-143.57;100.00;65101.44;5078044;28;45364;-52
2022/05/30 07:15:08;;;;;;;;;6.75;6.50;;;;;-143.57;100.00;65101.44;5077273;28;45407;-51
2022/05/30 07:17:33;;;;;;;;;5.75;4.50;;;;;-143.57;100.00;65101.44;5077686;28;45501;-52
2022/05/30 07:19:59;;;;;;;;;4.50;4.50;;;;;-143.57;100.00;65101.44;5077486;28;45333;-54
2022/05/30 07:22:25;;;;;;;;;7.50;5.75;;;;;-143.57;100.00;65101.44;5077818;28;45514;-52
2022/05/30 07:24:51;;;;;;;;;5.20;4.00;;;;;-143.57;100.00;65101.44;5077598;28;45902;-54
2022/05/30 07:27:16;;;;;;;;;5.75;5.75;;;;;-143.57;100.00;65101.44;5077153;28;45156;-54
2022/05/30 07:29:42;;;;;;;;;4.25;4.00;;;;;-143.57;100.00;65101.44;5077651;28;45185;-53
2022/05/30 07:32:07;;;;;;;;;7.25;3.50;;;;;-143.57;100.00;65101.44;5077737;28;45234;-55
2022/05/30 07:34:33;;;;;;;;;3.25;3.25;;;;;-143.57;100.00;65101.44;5076730;28;45393;-54
2022/05/30 07:36:59;;;;;;;;;3.25;3.25;;;;;-143.57;100.00;65101.44;5077287;28;45382;-54
2022/05/30 07:39:24;;;;;;;;;5.00;3.40;;;;;-143.57;100.00;65101.44;5077009;28;45281;-55
2022/05/30 07:41:50;;;;;;;;;4.50;4.50;;;;;-143.57;100.00;65101.44;5077701;28;45323;-54
2022/05/30 07:44:16;;;;;;;;;4.50;3.75;;;;;-143.57;100.00;65101.44;5077118;28;47291;-53
2022/05/30 07:46:43;;;;;;;;;4.75;4.00;;;;;-143.57;100.00;65101.44;5076938;28;45297;-52
2022/05/30 07:49:10;;;;;;;;;2.40;2.40;;;;;-143.57;100.00;65101.44;5077164;28;45421;-51
2022/05/30 07:51:36;;;;;;;;;3.00;2.80;;;;;-143.57;100.00;65101.44;5077346;28;45440;-53
2022/05/30 07:54:01;;;;;;;;;3.75;2.00;;;;;-143.57;100.00;65101.44;5077123;28;46014;-53
2022/05/30 07:56:27;;;;;;;;;1.75;1.75;;;;;-143.57;100.00;65101.44;5077232;28;45368;-54
2022/05/30 07:58:52;;;;;;;;;2.75;1.50;;;;;-143.57;100.00;65101.44;5077109;28;45322;-52
2022/05/30 08:01:20;;;;;;;;;4.75;1.50;;;;;-143.57;100.00;65101.44;5077219;28;45450;-55
2022/05/30 08:03:47;;;;;;;;;2.00;2.00;;;;;-143.57;100.00;65101.44;5076924;28;45350;-54
2022/05/30 08:06:28;;;;;;;;;3.20;2.60;;;;;-143.57;100.00;65101.44;5076417;28;45466;-54
2022/05/30 08:08:54;;;;;;;;;2.00;1.00;;;;;-143.57;100.00;65101.44;5076967;28;45268;-53
2022/05/30 08:11:21;;;;;;;;;3.20;2.20;;;;;-143.57;100.00;65101.44;5076277;28;45591;-53
2022/05/30 08:13:47;;;;;;;;;2.20;2.20;;;;;-143.57;100.00;65101.44;5073658;27;47254;-56
2022/05/30 08:16:14;;;;;;;;;2.00;2.00;;;;;-143.57;100.00;65101.44;5075619;28;45419;-51
2022/05/30 08:18:40;;;;;;;;;2.00;2.00;;;;;-143.57;100.00;65101.44;5076710;28;45356;-53
2022/05/30 08:21:05;;;;;;;;;4.00;1.00;;;;;-143.57;100.00;65101.44;5076730;28;45374;-53
2022/05/30 08:23:31;;;;;;;;;1.00;1.00;;;;;-143.57;100.00;65101.44;5076453;28;45373;-52
2022/05/30 08:25:57;;;;;;;;;2.60;2.20;;;;;-143.57;100.00;65101.44;5076310;28;45407;-52
2022/05/30 08:28:23;;;;;;;;;3.00;2.75;;;;;-143.57;100.00;65101.44;5076780;28;45300;-52
2022/05/30 08:30:49;;;;;;;;;2.25;2.00;;;;;-143.57;100.00;65101.44;5076719;28;45361;-52
2022/05/30 08:33:17;;;;;;;;;4.00;1.25;;;;;-143.57;100.00;65101.44;5076317;28;47589;-53
2022/05/30 08:35:45;;;;;;;;;1.00;1.00;;;;;-143.57;100.00;65101.44;5076042;28;45290;-53
2022/05/30 08:38:10;;;;;;;;;2.20;1.00;;;;;-143.57;100.00;65101.44;5076349;28;45305;-53
2022/05/30 08:43:39;;;;;;;;;3.00;1.40;;;;;-143.57;100.00;65101.44;5076249;28;45676;-54
2022/05/30 08:46:17;;;;;;;;;2.00;1.20;;;;;-143.57;100.00;65101.44;5076181;28;45275;-53
2022/05/30 08:48:51;;;;;;;;;2.20;0.20;;;;;-143.57;100.00;65101.44;5075694;28;45301;-54
2022/05/30 08:51:43;;;;;;;;;2.20;2.00;;;;;-143.57;100.00;65101.44;5078603;28;45371;-54
2022/05/30 08:54:14;;;;;;;;;4.60;1.80;;;;;-143.57;100.00;65101.44;5016766;28;47120;-54
2022/05/30 08:56:43;;;;;;;;;1.00;1.00;;;;;-143.57;100.00;65101.44;5016277;28;45347;-54
2022/05/30 08:59:14;;;;;;;;;0.80;0.80;;;;;-143.57;100.00;65101.44;5017305;28;45434;-53
2022/05/30 09:01:46;;;;;;;;;1.60;1.60;;;;;-143.57;100.00;65101.44;5017261;28;45389;-52
2022/05/30 09:04:47;;;;;;;;;0.40;0.40;;;;;-143.57;100.00;65101.44;5000270;28;45539;-54
2022/05/30 09:07:20;;;;;;;;;1.80;1.80;;;;;-143.57;100.00;65101.44;5016715;28;45606;-54
2022/05/30 09:10:01;;;;;;;;;0.80;0.80;;;;;-143.57;100.00;65101.44;5016959;28;45440;-54
2022/05/30 09:12:42;;;;;;;;;1.80;1.80;;;;;-143.57;100.00;65101.44;5017504;28;45273;-55
2022/05/30 09:15:15;;;;;;;;;2.00;2.00;;;;;-143.57;100.00;65101.44;5016823;28;46270;-54
2022/05/30 09:17:40;;;;;;;;;1.60;1.60;;;;;-143.57;100.00;65101.44;5016892;28;45387;-55
2022/05/30 09:20:11;;;;;;;;;2.00;2.00;;;;;-143.57;100.00;65101.44;5016845;28;45610;-53
2022/05/30 09:22:38;;;;;;;;;0.40;0.40;;;;;-143.57;100.00;65101.44;5016923;28;45468;-53
2022/05/30 09:27:49;;;;;;;;;1.60;1.60;;;;;-143.57;100.00;65101.44;5016850;28;45467;-55
2022/05/30 09:30:21;;;;;;;;;3.00;3.00;;;;;-143.57;100.00;65101.44;5025614;28;45475;-54
2022/05/30 09:33:09;;;;;;;;;2.20;2.20;;;;;-143.57;100.00;65101.44;5079349;28;45348;-54
2022/05/30 09:35:35;;;;;;;;;2.20;2.20;;;;;-143.57;100.00;65101.44;5078969;28;47463;-52
2022/05/30 09:38:22;;;;;;;;;2.00;2.00;;;;;-143.57;100.00;65101.44;5078801;28;45400;-51
2022/05/30 09:40:51;;;;;;;;;2.40;1.80;;;;;-143.57;100.00;65101.44;5079170;28;45411;-52
2022/05/30 09:43:39;;;;;;;;;1.20;1.20;;;;;-143.57;100.00;65101.44;5079183;28;45428;-55
2022/05/30 09:46:20;;;;;;;;;3.00;2.80;;;;;-143.57;100.00;65101.44;5078783;28;46217;-53
2022/05/30 09:49:00;;;;;;;;;3.60;1.20;;;;;-143.57;100.00;65101.44;5078979;28;45255;-56
2022/05/30 09:51:48;;;;;;;;;1.00;1.00;;;;;-143.57;100.00;65101.44;5078648;28;45429;-54
2022/05/30 09:54:32;;;;;;;;;1.00;1.00;;;;;-143.57;100.00;65101.44;5079066;28;45393;-54
2022/05/30 09:57:20;;;;;;;;;0.80;0.80;;;;;-143.57;100.00;65101.44;5078726;28;46024;-54
2022/05/30 09:59:49;;;;;;;;;3.00;1.20;;;;;-143.57;100.00;65101.44;5078590;28;45354;-54
2022/05/30 10:02:31;;;;;;;;;1.80;0.00;;;;;-143.57;100.00;65101.44;5077419;28;45471;-55
2022/05/30 10:05:04;;;;;;;;;1.00;1.00;;;;;-143.57;100.00;65101.44;5078580;28;45509;-54
2022/05/30 10:07:32;;;;;;;;;1.40;1.40;;;;;-143.57;100.00;65101.44;5078039;28;47272;-52
2022/05/30 10:10:19;;;;;;;;;3.20;2.20;;;;;-143.57;100.00;65101.44;5078459;28;45448;-55
2022/05/30 10:12:56;;;;;;;;;2.00;2.00;;;;;-143.57;100.00;65101.44;5078403;28;45326;-56
2022/05/30 10:15:42;;;;;;;;;2.60;1.60;;;;;-143.57;100.00;65101.44;5078553;28;45251;-55
2022/05/30 10:18:15;;;;;;;;;2.60;0.80;;;;;-143.57;100.00;65101.44;5078024;28;46448;-57
2022/05/30 10:21:00;;;;;;;;;0.60;0.60;;;;;-143.57;100.00;65101.44;5078094;28;45326;-58
2022/05/30 10:30:09;;;;;;;;;2.00;1.00;;;;;-143.57;100.00;65101.44;5078112;28;45879;-54
2022/05/30 10:32:53;;;;;;;;;3.20;2.00;;;;;-143.57;100.00;65101.44;5077581;28;45335;-54
2022/05/30 10:35:42;;;;;;;;;0.80;0.80;;;;;-143.57;100.00;65101.44;5078392;28;45341;-56
2022/05/30 10:38:31;;;;;;;;;1.60;1.60;;;;;-143.57;100.00;65101.44;5078419;28;45631;-57
2022/05/30 10:41:09;;;;;;;;;2.20;0.40;;;;;-143.57;100.00;65101.44;5078047;28;46234;-57
2022/05/30 10:44:06;;;;;;;;;2.20;1.00;;;;;-143.57;100.00;65101.44;5077968;28;45435;-55
2022/05/30 10:46:49;;;;;;;;;0.40;0.40;;;;;-143.57;100.00;65101.44;5078004;28;45284;-55
2022/05/30 10:49:20;;;;;;;;;3.80;2.00;;;;;-143.57;100.00;65101.44;5078134;28;45490;-54
2022/05/30 10:52:04;;;;;;;;;1.60;1.60;;;;;-143.57;100.00;65101.44;5077491;28;46307;-54
2022/05/30 10:54:34;;;;;;;;;0.80;0.80;;;;;-143.57;100.00;65101.44;5077679;28;45179;-54
2022/05/30 10:57:25;;;;;;;;;1.60;1.60;;;;;-143.57;100.00;65101.44;5059367;28;45436;-54
2022/05/30 11:00:30;;;;;;;;;1.80;1.80;;;;;-143.57;100.00;65101.44;5077822;28;45548;-56
2022/05/30 11:03:20;;;;;;;;;3.00;1.20;;;;;-143.57;100.00;65101.44;4995255;28;46589;-57
2022/05/30 11:05:54;;;;;;;;;1.20;1.20;;;;;-143.57;100.00;65101.44;4995095;28;45412;-57
2022/05/30 11:08:34;;;;;;;;;1.40;1.20;;;;;-143.57;100.00;65101.44;4994826;28;45439;-58
2022/05/30 11:11:14;;;;;;;;;1.20;1.20;;;;;-143.57;100.00;65101.44;4995307;28;45394;-58
2022/05/30 11:14:24;;;;;;;;;4.20;1.00;;;;;-143.57;100.00;65101.44;4994753;28;46322;-57
2022/05/30 11:16:53;;;;;;;;;2.80;2.40;;;;;-143.57;100.00;65101.44;4917423;28;45417;-58
2022/05/30 11:19:34;;;;;;;;;3.20;3.00;;;;;-143.57;100.00;65101.44;4917733;28;45515;-57
2022/05/30 11:22:03;;;;;;;;;2.25;2.25;;;;;-143.57;100.00;65101.44;4917748;28;45219;-57
2022/05/30 11:24:31;;;;;;;;;1.60;1.60;;;;;-143.57;100.00;65101.44;4917077;28;45583;-56
2022/05/30 11:27:11;;;;;;;;;2.00;2.00;;;;;-143.57;100.00;65101.44;4917238;28;45510;-56
2022/05/30 11:29:47;;;;;;;;;2.00;2.00;;;;;-143.57;100.00;65101.44;4917435;28;45396;-57
2022/05/30 11:33:02;;;;;;;;;2.00;2.00;;;;;-143.57;100.00;65101.44;4917767;28;45553;-57
2022/05/30 11:35:50;;;;;;;;;1.60;1.60;;;;;-143.57;100.00;65101.44;4916092;28;46010;-57
2022/05/30 11:38:39;;;;;;;;;3.40;2.00;;;;;-143.57;100.00;65101.44;4997108;28;45379;-58
2022/05/30 11:41:29;;;;;;;;;3.20;3.20;;;;;-143.57;100.00;65101.44;4991609;28;45410;-58
2022/05/30 11:44:13;;;;;;;;;3.80;2.00;;;;;-143.57;100.00;65101.44;4993070;28;45446;-57